createdAt,value
2022-10-29T00:00:17.256Z,27.90
2022-10-29T00:01:16.637Z,18.10
2022-10-29T00:02:16.541Z,17.30
2022-10-29T00:03:16.650Z,17.50
2022-10-29T00:04:16.536Z,13.80
2022-10-29T00:05:16.536Z,20.30
2022-10-29T00:06:16.952Z,15.00
2022-10-29T00:07:16.582Z,20.40
2022-10-29T00:08:16.503Z,16.60
2022-10-29T00:09:16.497Z,20.00
2022-10-29T00:10:16.480Z,16.80
2022-10-29T00:11:16.485Z,16.20
2022-10-29T00:12:16.490Z,18.40
2022-10-29T00:13:16.462Z,20.20
2022-10-29T00:14:16.462Z,17.60
2022-10-29T00:15:16.457Z,16.90
2022-10-29T00:16:16.767Z,17.50
2022-10-29T00:17:16.450Z,19.90
2022-10-29T00:18:16.437Z,23.00
2022-10-29T00:19:16.467Z,25.10
2022-10-29T00:20:18.215Z,16.70
2022-10-29T00:21:16.416Z,18.30
2022-10-29T00:22:16.402Z,15.90
2022-10-29T00:23:16.397Z,15.50
2022-10-29T00:24:16.396Z,20.20
2022-10-29T00:25:16.398Z,18.00
2022-10-29T00:26:16.386Z,18.80
2022-10-29T00:27:16.395Z,15.20
2022-10-29T00:28:16.363Z,14.10
2022-10-29T00:29:16.367Z,20.70
2022-10-29T00:30:16.348Z,16.20
2022-10-29T00:31:16.342Z,16.40
2022-10-29T00:32:16.982Z,16.50
2022-10-29T00:33:16.369Z,23.10
2022-10-29T00:34:16.318Z,16.90
2022-10-29T00:35:16.339Z,17.10
2022-10-29T00:36:17.307Z,15.70
2022-10-29T00:37:16.300Z,18.10
2022-10-29T00:38:16.313Z,13.90
2022-10-29T00:39:16.295Z,14.40
2022-10-29T00:40:16.277Z,22.00
2022-10-29T00:41:16.277Z,17.20
2022-10-29T00:42:16.280Z,19.70
2022-10-29T00:43:16.257Z,15.30
2022-10-29T00:44:16.253Z,21.40
2022-10-29T00:45:16.240Z,15.40
2022-10-29T00:46:16.251Z,14.60
2022-10-29T00:47:16.234Z,18.40
2022-10-29T00:48:17.919Z,18.20
2022-10-29T00:49:16.215Z,16.70
2022-10-29T00:50:16.203Z,22.40
2022-10-29T00:51:16.241Z,19.30
2022-10-29T00:52:16.197Z,14.50
2022-10-29T00:53:16.183Z,16.70
2022-10-29T00:54:16.503Z,19.70
2022-10-29T00:55:16.184Z,17.70
2022-10-29T00:56:16.212Z,17.40
2022-10-29T00:57:16.156Z,15.00
2022-10-29T00:58:16.157Z,16.50
2022-10-29T00:59:16.135Z,17.90
2022-10-29T01:00:16.171Z,19.40
2022-10-29T01:01:16.230Z,18.10
2022-10-29T01:02:16.283Z,21.20
2022-10-29T01:03:16.125Z,14.20
2022-10-29T01:04:16.521Z,19.00
2022-10-29T01:05:16.097Z,18.50
2022-10-29T01:06:16.817Z,15.40
2022-10-29T01:07:16.114Z,16.50
2022-10-29T01:08:16.166Z,17.30
2022-10-29T01:09:16.073Z,16.90
2022-10-29T01:10:16.490Z,20.20
2022-10-29T01:11:16.059Z,16.90
2022-10-29T01:12:16.699Z,13.70
2022-10-29T01:14:16.034Z,12.90
2022-10-29T01:15:16.031Z,18.50
2022-10-29T01:16:17.166Z,22.60
2022-10-29T01:17:17.827Z,20.00
2022-10-29T01:18:16.008Z,19.10
2022-10-29T01:19:16.134Z,17.40
2022-10-29T01:20:16.630Z,18.00
2022-10-29T01:21:16.616Z,22.50
2022-10-29T01:22:15.973Z,19.50
2022-10-29T01:23:15.991Z,13.50
2022-10-29T01:24:15.964Z,19.30
2022-10-29T01:25:15.955Z,17.40
2022-10-29T01:26:15.949Z,14.50
2022-10-29T01:27:15.959Z,20.40
2022-10-29T01:28:17.112Z,23.80
2022-10-29T01:29:15.943Z,18.20
2022-10-29T01:30:15.931Z,19.70
2022-10-29T01:31:15.910Z,14.70
2022-10-29T01:32:15.907Z,22.50
2022-10-29T01:33:16.717Z,21.90
2022-10-29T01:34:15.902Z,20.30
2022-10-29T01:35:15.889Z,12.60
2022-10-29T01:36:15.874Z,14.40
2022-10-29T01:37:15.884Z,16.30
2022-10-29T01:38:15.881Z,19.60
2022-10-29T01:39:15.900Z,19.90
2022-10-29T01:40:15.847Z,18.30
2022-10-29T01:41:15.849Z,14.30
2022-10-29T01:42:15.831Z,18.00
2022-10-29T01:43:15.895Z,23.30
2022-10-29T01:44:16.782Z,21.50
2022-10-29T01:45:15.823Z,20.80
2022-10-29T01:46:15.818Z,16.80
2022-10-29T01:47:15.805Z,17.30
2022-10-29T01:48:15.788Z,14.70
2022-10-29T01:49:16.466Z,15.20
2022-10-29T01:50:15.777Z,17.40
2022-10-29T01:51:16.433Z,15.60
2022-10-29T01:52:16.623Z,13.00
2022-10-29T01:53:15.758Z,18.60
2022-10-29T01:54:16.175Z,17.40
2022-10-29T01:55:15.860Z,14.00
2022-10-29T01:56:15.734Z,15.20
2022-10-29T01:57:16.682Z,15.80
2022-10-29T01:59:28.764Z,14.80
2022-10-29T02:00:16.722Z,18.00
2022-10-29T02:01:16.525Z,17.90
2022-10-29T02:02:15.702Z,22.50
2022-10-29T02:03:15.695Z,19.00
2022-10-29T02:04:15.679Z,16.80
2022-10-29T02:05:16.340Z,15.20
2022-10-29T02:06:15.660Z,18.80
2022-10-29T02:07:15.660Z,23.80
2022-10-29T02:08:15.655Z,22.10
2022-10-29T02:09:15.651Z,19.50
2022-10-29T02:10:17.566Z,15.70
2022-10-29T02:11:15.653Z,19.20
2022-10-29T02:12:15.634Z,20.80
2022-10-29T02:13:15.671Z,20.40
2022-10-29T02:14:15.618Z,18.00
2022-10-29T02:15:15.628Z,18.00
2022-10-29T02:16:15.594Z,15.70
2022-10-29T02:17:15.595Z,21.90
2022-10-29T02:18:17.259Z,19.60
2022-10-29T02:19:15.577Z,18.00
2022-10-29T02:20:15.572Z,16.70
2022-10-29T02:21:15.561Z,18.00
2022-10-29T02:22:16.356Z,17.60
2022-10-29T02:23:15.974Z,19.00
2022-10-29T02:24:16.187Z,19.90
2022-10-29T02:25:15.641Z,17.00
2022-10-29T02:26:15.535Z,19.50
2022-10-29T02:27:15.560Z,18.20
2022-10-29T02:28:16.005Z,16.00
2022-10-29T02:29:15.516Z,21.50
2022-10-29T02:30:15.501Z,20.20
2022-10-29T02:31:15.542Z,26.10
2022-10-29T02:32:15.534Z,17.30
2022-10-29T02:33:15.476Z,19.80
2022-10-29T02:34:15.472Z,20.00
2022-10-29T02:35:15.473Z,21.40
2022-10-29T02:36:15.465Z,20.40
2022-10-29T02:37:15.458Z,21.90
2022-10-29T02:38:16.807Z,18.10
2022-10-29T02:39:16.113Z,17.40
2022-10-29T02:40:16.612Z,16.00
2022-10-29T02:41:15.465Z,17.40
2022-10-29T02:42:15.410Z,27.60
2022-10-29T02:43:15.466Z,16.20
2022-10-29T02:44:15.420Z,20.40
2022-10-29T02:45:15.399Z,18.90
2022-10-29T02:46:15.807Z,15.60
2022-10-29T02:47:15.392Z,11.20
2022-10-29T02:48:15.389Z,15.50
2022-10-29T02:49:17.060Z,13.30
2022-10-29T02:50:15.402Z,17.50
2022-10-29T02:51:15.359Z,21.30
2022-10-29T02:52:15.361Z,18.70
2022-10-29T02:53:15.341Z,19.90
2022-10-29T02:54:15.366Z,18.70
2022-10-29T02:55:16.076Z,20.40
2022-10-29T02:56:15.331Z,20.80
2022-10-29T02:57:15.314Z,21.60
2022-10-29T02:58:15.347Z,18.30
2022-10-29T02:59:15.327Z,22.50
2022-10-29T03:00:15.316Z,25.20
2022-10-29T03:01:15.754Z,19.00
2022-10-29T03:02:15.450Z,22.20
2022-10-29T03:03:15.270Z,18.70
2022-10-29T03:04:15.270Z,21.00
2022-10-29T03:05:15.255Z,20.80
2022-10-29T03:06:15.673Z,21.60
2022-10-29T03:07:15.263Z,19.30
2022-10-29T03:08:15.236Z,17.70
2022-10-29T03:09:15.233Z,19.30
2022-10-29T03:10:15.328Z,19.80
2022-10-29T03:11:15.216Z,21.00
2022-10-29T03:12:15.225Z,15.80
2022-10-29T03:13:15.209Z,24.60
2022-10-29T03:14:15.209Z,15.20
2022-10-29T03:15:15.215Z,15.70
2022-10-29T03:16:15.190Z,19.20
2022-10-29T03:17:15.189Z,17.40
2022-10-29T03:18:15.176Z,17.10
2022-10-29T03:19:15.600Z,17.10
2022-10-29T03:20:15.169Z,17.90
2022-10-29T03:21:16.355Z,20.80
2022-10-29T03:22:15.152Z,16.00
2022-10-29T03:23:15.141Z,16.70
2022-10-29T03:24:15.136Z,24.30
2022-10-29T03:25:15.127Z,22.50
2022-10-29T03:26:15.791Z,19.00
2022-10-29T03:27:15.119Z,25.20
2022-10-29T03:28:15.554Z,19.70
2022-10-29T03:29:15.091Z,20.40
2022-10-29T03:30:15.085Z,19.20
2022-10-29T03:31:15.106Z,17.20
2022-10-29T03:32:15.070Z,18.20
2022-10-29T03:33:15.067Z,20.00
2022-10-29T03:34:15.493Z,22.00
2022-10-29T03:35:15.047Z,17.90
2022-10-29T03:36:15.141Z,19.80
2022-10-29T03:37:15.033Z,19.30
2022-10-29T03:38:15.028Z,18.50
2022-10-29T03:39:16.823Z,18.60
2022-10-29T03:40:15.018Z,20.20
2022-10-29T03:41:15.023Z,24.30
2022-10-29T03:42:15.010Z,27.30
2022-10-29T03:43:14.996Z,17.40
2022-10-29T03:44:14.998Z,20.90
2022-10-29T03:45:15.005Z,29.10
2022-10-29T03:46:14.985Z,26.60
2022-10-29T03:47:14.991Z,22.30
2022-10-29T03:48:14.986Z,22.80
2022-10-29T03:49:15.582Z,22.80
2022-10-29T03:50:14.951Z,18.80
2022-10-29T03:51:14.948Z,18.20
2022-10-29T03:52:14.952Z,21.60
2022-10-29T03:53:14.957Z,20.80
2022-10-29T03:54:14.934Z,18.80
2022-10-29T03:55:14.921Z,17.00
2022-10-29T03:56:14.918Z,19.00
2022-10-29T03:57:14.946Z,24.30
2022-10-29T03:58:14.895Z,18.00
2022-10-29T03:59:15.859Z,20.10
2022-10-29T04:00:14.881Z,21.50
2022-10-29T04:01:14.937Z,20.70
2022-10-29T04:02:15.158Z,20.60
2022-10-29T04:03:14.885Z,21.30
2022-10-29T04:04:14.863Z,23.10
2022-10-29T04:05:16.263Z,18.30
2022-10-29T04:06:14.842Z,18.00
2022-10-29T04:07:14.843Z,20.70
2022-10-29T04:08:14.827Z,22.30
2022-10-29T04:09:14.851Z,26.20
2022-10-29T04:10:14.823Z,19.40
2022-10-29T04:11:14.811Z,21.10
2022-10-29T04:12:14.807Z,20.50
2022-10-29T04:13:14.795Z,21.20
2022-10-29T04:14:14.784Z,23.80
2022-10-29T04:15:15.831Z,20.90
2022-10-29T04:16:14.790Z,20.40
2022-10-29T04:17:15.220Z,21.20
2022-10-29T04:18:14.787Z,22.20
2022-10-29T04:19:14.781Z,22.70
2022-10-29T04:20:31.794Z,20.70
2022-10-29T04:27:07.840Z,21.30
2022-10-29T04:28:42.565Z,19.60
2022-10-29T04:29:15.690Z,18.50
2022-10-29T04:30:14.711Z,24.30
2022-10-29T04:31:14.674Z,16.10
2022-10-29T04:32:14.681Z,21.80
2022-10-29T04:33:14.685Z,20.00
2022-10-29T04:34:14.657Z,16.80
2022-10-29T04:35:14.665Z,19.00
2022-10-29T04:36:14.641Z,18.70
2022-10-29T04:37:14.628Z,20.10
2022-10-29T04:38:14.620Z,17.40
2022-10-29T04:39:18.303Z,16.30
2022-10-29T04:40:15.604Z,17.70
2022-10-29T04:41:14.612Z,18.10
2022-10-29T04:42:14.598Z,17.00
2022-10-29T04:43:14.586Z,21.40
2022-10-29T04:44:15.653Z,24.10
2022-10-29T04:45:14.579Z,22.40
2022-10-29T04:46:14.567Z,14.10
2022-10-29T04:47:14.572Z,22.10
2022-10-29T04:48:14.558Z,19.90
2022-10-29T04:49:16.582Z,20.60
2022-10-29T04:50:14.540Z,22.10
2022-10-29T04:51:14.560Z,23.40
2022-10-29T04:52:14.520Z,23.30
2022-10-29T04:53:14.530Z,22.00
2022-10-29T04:54:14.515Z,21.70
2022-10-29T04:55:14.515Z,18.00
2022-10-29T04:56:14.635Z,22.80
2022-10-29T04:57:14.505Z,20.70
2022-10-29T04:58:14.481Z,22.70
2022-10-29T04:59:14.486Z,17.90
2022-10-29T05:00:17.892Z,21.70
2022-10-29T05:01:14.697Z,16.70
2022-10-29T05:02:14.487Z,16.10
2022-10-29T05:03:14.454Z,24.80
2022-10-29T05:04:14.450Z,29.00
2022-10-29T05:05:14.471Z,22.80
2022-10-29T05:06:14.473Z,18.10
2022-10-29T05:07:14.470Z,22.10
2022-10-29T05:08:14.418Z,19.40
2022-10-29T05:09:14.443Z,25.20
2022-10-29T05:10:15.085Z,24.10
2022-10-29T05:11:14.404Z,29.40
2022-10-29T05:12:14.398Z,18.60
2022-10-29T05:13:14.438Z,25.60
2022-10-29T05:14:14.787Z,22.60
2022-10-29T05:15:14.374Z,26.20
2022-10-29T05:16:14.365Z,25.10
2022-10-29T05:17:14.362Z,26.60
2022-10-29T05:18:14.356Z,26.70
2022-10-29T05:19:14.341Z,19.80
2022-10-29T05:20:14.672Z,25.30
2022-10-29T05:21:14.334Z,25.00
2022-10-29T05:22:14.326Z,21.90
2022-10-29T05:23:14.337Z,19.80
2022-10-29T05:24:14.312Z,20.90
2022-10-29T05:25:14.302Z,22.00
2022-10-29T05:26:14.304Z,21.30
2022-10-29T05:27:14.741Z,24.50
2022-10-29T05:28:14.288Z,24.20
2022-10-29T05:29:14.283Z,25.60
2022-10-29T05:30:14.275Z,20.00
2022-10-29T05:31:14.264Z,18.10
2022-10-29T05:32:14.681Z,23.30
2022-10-29T05:33:14.259Z,22.50
2022-10-29T05:34:14.263Z,22.10
2022-10-29T05:35:14.243Z,21.10
2022-10-29T05:36:14.235Z,26.40
2022-10-29T05:37:14.227Z,25.80
2022-10-29T05:38:14.222Z,28.30
2022-10-29T05:39:14.234Z,23.50
2022-10-29T05:40:14.219Z,25.20
2022-10-29T05:41:14.213Z,19.90
2022-10-29T05:42:14.190Z,26.80
2022-10-29T05:43:14.183Z,23.10
2022-10-29T05:44:14.176Z,25.00
2022-10-29T05:45:14.165Z,23.60
2022-10-29T05:46:14.175Z,22.00
2022-10-29T05:47:14.160Z,23.10
2022-10-29T05:48:14.344Z,33.40
2022-10-29T05:49:14.149Z,24.50
2022-10-29T05:50:14.135Z,29.70
2022-10-29T05:51:14.136Z,21.20
2022-10-29T05:52:14.114Z,26.40
2022-10-29T05:53:14.122Z,24.90
2022-10-29T05:54:14.108Z,19.40
2022-10-29T05:55:14.124Z,26.20
2022-10-29T05:56:14.118Z,21.30
2022-10-29T05:57:14.110Z,20.00
2022-10-29T05:58:14.083Z,26.00
2022-10-29T05:59:14.513Z,20.90
2022-10-29T06:00:14.333Z,18.90
2022-10-29T06:01:14.141Z,24.70
2022-10-29T06:02:14.220Z,23.30
2022-10-29T06:03:15.587Z,28.10
2022-10-29T06:04:14.031Z,21.50
2022-10-29T06:05:14.020Z,23.90
2022-10-29T06:06:14.094Z,23.30
2022-10-29T06:07:14.005Z,23.40
2022-10-29T06:08:14.039Z,23.30
2022-10-29T06:09:14.013Z,19.30
2022-10-29T06:10:13.984Z,24.20
2022-10-29T06:11:14.838Z,20.10
2022-10-29T06:12:13.974Z,21.00
2022-10-29T06:13:13.980Z,17.40
2022-10-29T06:14:13.983Z,19.30
2022-10-29T06:15:13.949Z,23.40
2022-10-29T06:16:13.961Z,18.90
2022-10-29T06:17:13.941Z,22.00
2022-10-29T06:18:13.929Z,24.30
2022-10-29T06:19:13.932Z,20.20
2022-10-29T06:20:13.931Z,18.20
2022-10-29T06:21:13.908Z,24.60
2022-10-29T06:22:13.909Z,25.30
2022-10-29T06:23:13.917Z,23.20
2022-10-29T06:24:13.926Z,21.80
2022-10-29T06:25:13.878Z,21.80
2022-10-29T06:26:14.783Z,24.30
2022-10-29T06:27:13.889Z,20.90
2022-10-29T06:28:13.868Z,19.40
2022-10-29T06:29:13.874Z,23.80
2022-10-29T06:30:13.845Z,17.20
2022-10-29T06:31:13.840Z,22.90
2022-10-29T06:32:13.833Z,24.70
2022-10-29T06:33:14.520Z,19.30
2022-10-29T06:34:13.831Z,21.50
2022-10-29T06:35:13.805Z,16.30
2022-10-29T06:36:14.499Z,20.90
2022-10-29T06:37:13.803Z,17.70
2022-10-29T06:38:13.794Z,18.60
2022-10-29T06:39:13.985Z,18.30
2022-10-29T06:40:13.788Z,13.40
2022-10-29T06:41:13.838Z,10.20
2022-10-29T06:42:13.763Z,7.80
2022-10-29T06:43:13.787Z,14.80
2022-10-29T06:44:13.750Z,7.90
2022-10-29T06:45:13.741Z,15.10
2022-10-29T06:46:15.024Z,17.10
2022-10-29T06:47:13.725Z,19.70
2022-10-29T06:48:14.604Z,19.30
2022-10-29T06:49:13.721Z,19.10
2022-10-29T06:50:13.790Z,16.00
2022-10-29T06:51:13.784Z,18.80
2022-10-29T06:52:13.695Z,19.10
2022-10-29T06:53:13.686Z,19.90
2022-10-29T06:54:13.883Z,23.30
2022-10-29T06:55:13.682Z,29.30
2022-10-29T06:56:13.671Z,25.60
2022-10-29T06:57:13.659Z,25.20
2022-10-29T06:58:13.673Z,22.10
2022-10-29T06:59:13.672Z,29.40
2022-10-29T07:00:14.390Z,22.20
2022-10-29T07:01:13.727Z,22.00
2022-10-29T07:02:13.626Z,23.90
2022-10-29T07:03:13.627Z,22.70
2022-10-29T07:04:13.637Z,24.20
2022-10-29T07:05:13.610Z,20.50
2022-10-29T07:06:13.613Z,18.00
2022-10-29T07:07:13.626Z,21.50
2022-10-29T07:08:13.595Z,17.70
2022-10-29T07:09:13.607Z,18.70
2022-10-29T07:10:14.216Z,21.40
2022-10-29T07:11:13.576Z,24.50
2022-10-29T07:12:13.575Z,21.20
2022-10-29T07:13:13.550Z,26.20
2022-10-29T07:14:13.552Z,23.80
2022-10-29T07:15:13.561Z,23.10
2022-10-29T07:16:14.218Z,18.50
2022-10-29T07:17:13.552Z,18.20
2022-10-29T07:18:13.516Z,22.10
2022-10-29T07:19:13.536Z,14.80
2022-10-29T07:20:13.504Z,20.70
2022-10-29T07:21:13.493Z,19.40
2022-10-29T07:22:13.500Z,15.00
2022-10-29T07:23:14.068Z,12.40
2022-10-29T07:24:13.558Z,18.70
2022-10-29T07:25:13.474Z,14.20
2022-10-29T07:26:13.466Z,11.50
2022-10-29T07:27:13.560Z,13.60
2022-10-29T07:28:15.370Z,12.00
2022-10-29T07:29:13.447Z,14.00
2022-10-29T07:30:13.454Z,15.50
2022-10-29T07:31:13.455Z,14.00
2022-10-29T07:32:13.424Z,15.50
2022-10-29T07:33:13.905Z,11.90
2022-10-29T07:34:13.410Z,12.70
2022-10-29T07:35:13.411Z,21.10
2022-10-29T07:36:13.429Z,18.80
2022-10-29T07:37:13.413Z,15.30
2022-10-29T07:38:13.405Z,10.90
2022-10-29T07:39:13.369Z,14.70
2022-10-29T07:40:13.372Z,17.00
2022-10-29T07:41:13.426Z,20.90
2022-10-29T07:42:13.355Z,15.20
2022-10-29T07:43:13.535Z,13.90
2022-10-29T07:44:13.332Z,10.00
2022-10-29T07:45:13.376Z,15.50
2022-10-29T07:46:13.441Z,13.60
2022-10-29T07:47:13.340Z,12.70
2022-10-29T07:48:13.315Z,10.20
2022-10-29T07:49:13.322Z,12.60
2022-10-29T07:50:14.339Z,12.30
2022-10-29T07:51:13.292Z,10.20
2022-10-29T07:52:13.307Z,12.30
2022-10-29T07:53:13.298Z,10.00
2022-10-29T07:54:14.794Z,11.40
2022-10-29T07:55:13.750Z,9.60
2022-10-29T07:56:13.255Z,13.30
2022-10-29T07:57:13.246Z,12.70
2022-10-29T07:58:13.261Z,10.30
2022-10-29T07:59:13.226Z,9.50
2022-10-29T08:00:13.238Z,10.80
2022-10-29T08:01:13.385Z,11.60
2022-10-29T08:02:13.239Z,11.80
2022-10-29T08:03:13.234Z,10.80
2022-10-29T08:04:13.191Z,14.20
2022-10-29T08:05:13.194Z,12.10
2022-10-29T08:06:13.193Z,22.50
2022-10-29T08:07:13.187Z,14.40
2022-10-29T08:08:13.162Z,17.10
2022-10-29T08:09:13.157Z,13.80
2022-10-29T08:10:13.156Z,17.30
2022-10-29T08:11:13.200Z,12.60
2022-10-29T08:12:13.149Z,17.30
2022-10-29T08:13:13.150Z,16.80
2022-10-29T08:14:13.115Z,21.40
2022-10-29T08:15:13.138Z,15.60
2022-10-29T08:16:13.115Z,18.30
2022-10-29T08:17:13.100Z,17.30
2022-10-29T08:18:13.087Z,22.20
2022-10-29T08:19:13.560Z,19.90
2022-10-29T08:20:13.096Z,14.30
2022-10-29T08:21:13.063Z,20.30
2022-10-29T08:22:14.382Z,14.70
2022-10-29T08:23:13.055Z,13.50
2022-10-29T08:24:13.037Z,13.30
2022-10-29T08:25:13.042Z,17.30
2022-10-29T08:26:13.032Z,15.20
2022-10-29T08:27:13.028Z,15.70
2022-10-29T08:28:13.158Z,13.70
2022-10-29T08:29:13.010Z,17.20
2022-10-29T08:30:13.000Z,20.10
2022-10-29T08:31:12.991Z,19.10
2022-10-29T08:32:12.995Z,11.30
2022-10-29T08:33:12.980Z,11.60
2022-10-29T08:34:14.795Z,15.70
2022-10-29T08:35:12.993Z,12.40
2022-10-29T08:36:12.952Z,13.50
2022-10-29T08:37:12.955Z,11.00
2022-10-29T08:38:12.936Z,16.00
2022-10-29T08:39:13.365Z,15.50
2022-10-29T08:40:12.945Z,16.40
2022-10-29T08:41:12.925Z,12.10
2022-10-29T08:42:12.907Z,14.70
2022-10-29T08:43:12.902Z,14.00
2022-10-29T08:44:12.905Z,15.50
2022-10-29T08:45:12.903Z,14.40
2022-10-29T08:46:12.891Z,19.10
2022-10-29T08:47:12.881Z,14.20
2022-10-29T08:48:12.871Z,17.80
2022-10-29T08:49:12.872Z,14.50
2022-10-29T08:50:12.850Z,13.30
2022-10-29T08:51:12.882Z,10.80
2022-10-29T08:52:12.856Z,11.20
2022-10-29T08:53:22.792Z,14.90
2022-10-29T08:55:13.813Z,10.20
2022-10-29T08:56:14.013Z,12.80
2022-10-29T08:57:13.530Z,13.20
2022-10-29T08:58:12.803Z,11.40
2022-10-29T08:59:12.788Z,14.40
2022-10-29T09:00:12.807Z,12.40
2022-10-29T09:01:12.895Z,14.80
2022-10-29T09:02:12.881Z,13.90
2022-10-29T09:03:12.764Z,16.90
2022-10-29T09:04:12.754Z,15.60
2022-10-29T09:05:12.755Z,14.00
2022-10-29T09:06:12.780Z,10.30
2022-10-29T09:07:12.758Z,15.30
2022-10-29T09:08:12.745Z,13.20
2022-10-29T09:09:12.716Z,13.60
2022-10-29T09:10:12.710Z,14.60
2022-10-29T09:11:12.708Z,14.20
2022-10-29T09:12:12.698Z,15.70
2022-10-29T09:13:12.715Z,11.20
2022-10-29T09:14:12.693Z,11.40
2022-10-29T09:15:12.682Z,12.50
2022-10-29T09:16:12.681Z,15.60
2022-10-29T09:17:14.696Z,15.30
2022-10-29T09:18:12.665Z,13.10
2022-10-29T09:19:12.696Z,15.60
2022-10-29T09:20:12.684Z,13.70
2022-10-29T09:21:12.644Z,16.90
2022-10-29T09:22:12.641Z,13.90
2022-10-29T09:23:12.647Z,13.70
2022-10-29T09:24:12.636Z,13.20
2022-10-29T09:25:13.338Z,15.60
2022-10-29T09:26:12.701Z,19.20
2022-10-29T09:27:12.600Z,16.20
2022-10-29T09:28:12.600Z,12.10
2022-10-29T09:29:12.589Z,14.30
2022-10-29T09:30:12.577Z,17.40
2022-10-29T09:31:12.597Z,11.00
2022-10-29T09:32:12.561Z,12.00
2022-10-29T09:33:12.564Z,15.90
2022-10-29T09:34:12.564Z,15.80
2022-10-29T09:35:12.537Z,11.60
2022-10-29T09:36:12.620Z,16.00
2022-10-29T09:37:12.523Z,20.20
2022-10-29T09:38:12.516Z,11.50
2022-10-29T09:39:12.572Z,15.10
2022-10-29T09:40:12.536Z,19.30
2022-10-29T09:41:12.500Z,14.00
2022-10-29T09:42:12.507Z,17.30
2022-10-29T09:43:12.489Z,14.80
2022-10-29T09:44:12.474Z,15.30
2022-10-29T09:45:12.473Z,13.40
2022-10-29T09:46:13.636Z,11.30
2022-10-29T09:47:12.454Z,15.10
2022-10-29T09:48:12.455Z,19.00
2022-10-29T09:49:12.441Z,14.40
2022-10-29T09:50:12.429Z,10.70
2022-10-29T09:51:12.433Z,15.10
2022-10-29T09:52:13.208Z,18.20
2022-10-29T09:53:12.417Z,13.30
2022-10-29T09:54:12.425Z,14.90
2022-10-29T09:55:12.416Z,15.00
2022-10-29T09:56:13.171Z,12.50
2022-10-29T09:57:12.409Z,12.70
2022-10-29T09:58:12.430Z,10.50
2022-10-29T09:59:12.374Z,11.90
2022-10-29T10:00:12.750Z,11.40
2022-10-29T10:01:12.450Z,13.20
2022-10-29T10:02:13.924Z,16.30
2022-10-29T10:03:12.399Z,15.50
2022-10-29T10:04:12.334Z,17.40
2022-10-29T10:05:12.338Z,15.30
2022-10-29T10:06:12.335Z,17.50
2022-10-29T10:07:12.313Z,13.50
2022-10-29T10:08:13.134Z,17.70
2022-10-29T10:09:12.298Z,13.50
2022-10-29T10:10:12.292Z,15.60
2022-10-29T10:11:12.315Z,15.20
2022-10-29T10:12:12.282Z,15.80
2022-10-29T10:13:16.808Z,14.80
2022-10-29T10:14:13.282Z,15.40
2022-10-29T10:15:12.271Z,12.70
2022-10-29T10:16:12.258Z,13.80
2022-10-29T10:17:12.242Z,13.90
2022-10-29T10:18:12.234Z,12.90
2022-10-29T10:19:12.230Z,15.10
2022-10-29T10:20:12.217Z,13.70
2022-10-29T10:21:12.821Z,15.40
2022-10-29T10:22:15.437Z,13.30
2022-10-29T10:23:12.192Z,11.80
2022-10-29T10:24:12.195Z,15.90
2022-10-29T10:25:12.281Z,13.30
2022-10-29T10:26:12.605Z,15.50
2022-10-29T10:27:12.197Z,15.60
2022-10-29T10:28:12.162Z,13.70
2022-10-29T10:29:12.166Z,16.50
2022-10-29T10:30:12.164Z,12.30
2022-10-29T10:31:12.167Z,13.00
2022-10-29T10:32:12.137Z,11.80
2022-10-29T10:33:12.231Z,14.80
2022-10-29T10:34:12.127Z,16.30
2022-10-29T10:35:12.111Z,16.80
2022-10-29T10:36:12.115Z,16.70
2022-10-29T10:37:12.130Z,15.00
2022-10-29T10:38:12.094Z,11.40
2022-10-29T10:39:12.878Z,25.20
2022-10-29T10:40:12.115Z,18.10
2022-10-29T10:41:12.074Z,13.80
2022-10-29T10:42:12.068Z,17.50
2022-10-29T10:43:12.075Z,15.10
2022-10-29T10:44:12.058Z,12.80
2022-10-29T10:45:12.059Z,13.30
2022-10-29T10:46:12.034Z,13.70
2022-10-29T10:47:12.032Z,17.10
2022-10-29T10:48:12.165Z,14.90
2022-10-29T10:49:12.204Z,17.10
2022-10-29T10:50:12.021Z,11.00
2022-10-29T10:51:12.007Z,11.30
2022-10-29T10:52:11.998Z,17.40
2022-10-29T10:53:12.018Z,16.60
2022-10-29T10:54:12.041Z,10.60
2022-10-29T10:55:11.973Z,12.70
2022-10-29T10:56:11.974Z,12.80
2022-10-29T10:57:11.963Z,11.50
2022-10-29T10:58:11.955Z,14.00
2022-10-29T10:59:11.998Z,12.80
2022-10-29T11:00:11.940Z,12.00
2022-10-29T11:01:12.035Z,15.20
2022-10-29T11:02:12.021Z,13.20
2022-10-29T11:03:11.967Z,18.90
2022-10-29T11:04:11.913Z,11.00
2022-10-29T11:05:12.285Z,12.70
2022-10-29T11:06:11.908Z,14.00
2022-10-29T11:07:11.892Z,11.60
2022-10-29T11:08:11.895Z,17.90
2022-10-29T11:09:11.894Z,10.60
2022-10-29T11:10:11.872Z,13.90
2022-10-29T11:11:11.874Z,15.60
2022-10-29T11:12:11.863Z,16.10
2022-10-29T11:13:11.862Z,15.50
2022-10-29T11:14:11.856Z,12.80
2022-10-29T11:15:12.915Z,16.60
2022-10-29T11:16:11.843Z,14.90
2022-10-29T11:17:11.831Z,18.00
2022-10-29T11:18:11.886Z,12.30
2022-10-29T11:19:11.821Z,14.50
2022-10-29T11:20:11.810Z,13.10
2022-10-29T11:21:12.380Z,16.10
2022-10-29T11:22:11.802Z,15.00
2022-10-29T11:23:11.787Z,15.00
2022-10-29T11:24:11.846Z,17.30
2022-10-29T11:25:11.771Z,11.10
2022-10-29T11:26:11.769Z,14.20
2022-10-29T11:27:12.490Z,12.60
2022-10-29T11:28:11.753Z,18.50
2022-10-29T11:29:11.752Z,15.90
2022-10-29T11:30:11.749Z,16.40
2022-10-29T11:31:11.760Z,15.70
2022-10-29T11:32:11.739Z,11.20
2022-10-29T11:33:11.982Z,13.70
2022-10-29T11:34:11.721Z,12.00
2022-10-29T11:35:11.732Z,17.40
2022-10-29T11:36:11.710Z,13.50
2022-10-29T11:37:11.696Z,16.00
2022-10-29T11:38:11.694Z,16.60
2022-10-29T11:39:11.704Z,16.70
2022-10-29T11:40:11.685Z,14.60
2022-10-29T11:41:11.674Z,16.10
2022-10-29T11:42:11.665Z,13.00
2022-10-29T11:43:11.674Z,12.80
2022-10-29T11:44:11.649Z,13.80
2022-10-29T11:45:12.514Z,15.70
2022-10-29T11:46:11.629Z,15.90
2022-10-29T11:47:11.655Z,17.40
2022-10-29T11:48:11.675Z,15.00
2022-10-29T11:49:13.441Z,14.70
2022-10-29T11:50:11.607Z,17.50
2022-10-29T11:51:11.592Z,13.60
2022-10-29T11:52:11.590Z,14.50
2022-10-29T11:53:11.615Z,15.00
2022-10-29T11:54:12.267Z,16.50
2022-10-29T11:55:11.576Z,14.80
2022-10-29T11:56:11.561Z,12.80
2022-10-29T11:57:11.549Z,13.00
2022-10-29T11:58:11.560Z,14.10
2022-10-29T11:59:13.343Z,15.60
2022-10-29T12:00:11.531Z,16.00
2022-10-29T12:01:11.588Z,20.50
2022-10-29T12:02:11.531Z,18.60
2022-10-29T12:03:11.538Z,15.20
2022-10-29T12:04:11.507Z,14.90
2022-10-29T12:05:11.493Z,18.40
2022-10-29T12:06:11.518Z,16.10
2022-10-29T12:07:11.516Z,15.50
2022-10-29T12:08:11.513Z,14.50
2022-10-29T12:09:11.518Z,14.00
2022-10-29T12:10:11.460Z,15.20
2022-10-29T12:11:11.448Z,12.20
2022-10-29T12:12:11.447Z,12.40
2022-10-29T12:13:11.448Z,13.90
2022-10-29T12:14:12.074Z,13.70
2022-10-29T12:15:11.429Z,13.70
2022-10-29T12:16:11.415Z,10.10
2022-10-29T12:17:11.410Z,18.90
2022-10-29T12:18:11.471Z,13.50
2022-10-29T12:19:11.417Z,14.80
2022-10-29T12:20:11.761Z,13.20
2022-10-29T12:21:11.424Z,17.40
2022-10-29T12:22:11.384Z,17.10
2022-10-29T12:23:15.051Z,16.00
2022-10-29T12:24:11.367Z,16.00
2022-10-29T12:25:11.355Z,14.00
2022-10-29T12:26:11.368Z,16.50
2022-10-29T12:27:11.344Z,12.60
2022-10-29T12:28:11.395Z,17.30
2022-10-29T12:29:11.320Z,17.40
2022-10-29T12:30:11.452Z,16.90
2022-10-29T12:31:11.307Z,15.50
2022-10-29T12:32:11.312Z,16.30
2022-10-29T12:33:11.308Z,14.30
2022-10-29T12:34:12.738Z,15.70
2022-10-29T12:35:11.318Z,12.20
2022-10-29T12:36:11.275Z,16.60
2022-10-29T12:37:11.279Z,17.40
2022-10-29T12:38:11.273Z,15.30
2022-10-29T12:39:11.262Z,15.90
2022-10-29T12:40:11.559Z,19.20
2022-10-29T12:41:11.238Z,14.60
2022-10-29T12:42:11.242Z,15.40
2022-10-29T12:43:11.223Z,19.10
2022-10-29T12:44:11.225Z,14.90
2022-10-29T12:45:11.217Z,13.90
2022-10-29T12:46:26.570Z,16.10
2022-10-29T12:47:12.204Z,16.70
2022-10-29T12:48:11.190Z,14.50
2022-10-29T12:49:11.198Z,16.30
2022-10-29T12:50:11.196Z,18.80
2022-10-29T12:51:11.199Z,22.30
2022-10-29T12:52:11.169Z,15.30
2022-10-29T12:53:11.168Z,15.80
2022-10-29T12:54:11.157Z,15.00
2022-10-29T12:55:11.155Z,20.40
2022-10-29T12:56:11.142Z,18.70
2022-10-29T12:57:11.171Z,19.90
2022-10-29T12:58:11.126Z,21.90
2022-10-29T12:59:11.126Z,17.60
2022-10-29T13:00:11.107Z,20.10
2022-10-29T13:01:11.367Z,15.80